Time;durP1;ratioP1;P1;durP2;ratioP2;P2;SDS_P1;SDS_P2;PMS_P1;PMS_P2;Temp;Humidity;BMP_temperature;BMP_pressure;BME280_temperature;BME280_humidity;BME280_pressure;Samples;Min_cycle;Max_cycle;Signal;HPM_P1;HPM_P2
2023/04/22 00:01:44;;;;;;;1.40;1.30;;;;;;;21.83;40.77;99906.09;4543834;28;20033;-60
2023/04/22 00:03:54;;;;;;;1.30;1.20;;;;;;;21.85;40.51;99911.47;4532121;28;20481;-60
2023/04/22 00:06:05;;;;;;;1.35;1.25;;;;;;;21.84;39.99;99906.91;4544834;28;20084;-60
2023/04/22 00:08:15;;;;;;;1.42;1.10;;;;;;;21.84;40.76;99919.25;4543511;28;20051;-60
2023/04/22 00:10:26;;;;;;;1.40;1.30;;;;;;;21.84;40.62;99919.25;4546141;28;20044;-60
2023/04/22 00:12:37;;;;;;;1.30;1.20;;;;;;;21.84;40.00;99918.41;4544621;28;20564;-60
2023/04/22 00:14:47;;;;;;;1.75;1.20;;;;;;;21.83;40.23;99911.00;4547335;28;20385;-60
2023/04/22 00:16:58;;;;;;;1.20;1.10;;;;;;;21.83;40.42;99908.16;4546507;28;20095;-60
2023/04/22 00:19:08;;;;;;;1.33;1.23;;;;;;;21.78;40.47;99891.25;4534265;28;20041;-61
2023/04/22 00:21:19;;;;;;;1.35;1.25;;;;;;;21.82;40.83;99892.94;4545643;28;20095;-60
2023/04/22 00:23:30;;;;;;;1.70;1.58;;;;;;;21.82;40.52;99898.69;4534490;28;20075;-60
2023/04/22 00:25:40;;;;;;;1.77;1.30;;;;;;;21.82;40.29;99886.34;4545533;28;20041;-60
2023/04/22 00:27:51;;;;;;;1.40;1.25;;;;;;;21.82;40.68;99890.06;4523673;28;20029;-60
2023/04/22 00:30:01;;;;;;;1.65;1.27;;;;;;;21.82;40.47;99892.09;4542572;28;20064;-60
2023/04/22 00:32:12;;;;;;;1.50;1.40;;;;;;;21.82;40.80;99886.34;4547141;28;20037;-60
2023/04/22 00:34:22;;;;;;;1.95;1.40;;;;;;;21.75;40.40;99881.38;4543447;28;20099;-60
2023/04/22 00:36:33;;;;;;;1.52;1.42;;;;;;;21.81;40.84;99884.72;4533643;28;20471;-60
2023/04/22 00:38:48;;;;;;;1.83;1.58;;;;;;;21.82;40.37;99900.72;4524879;28;20100;-61
2023/04/22 00:41:00;;;;;;;1.52;1.42;;;;;;;21.81;40.21;99902.78;4542035;28;20076;-60
2023/04/22 00:43:11;;;;;;;1.55;1.45;;;;;;;21.74;39.82;99881.75;4525308;28;20033;-60
2023/04/22 00:45:22;;;;;;;1.50;1.40;;;;;;;21.81;39.92;99885.56;4525202;28;20042;-61
2023/04/22 00:47:33;;;;;;;1.33;1.23;;;;;;;21.80;40.02;99880.19;4534479;28;20072;-60
2023/04/22 00:49:44;;;;;;;2.28;1.48;;;;;;;21.79;39.95;99887.16;4543856;28;20025;-60
2023/04/22 00:51:54;;;;;;;1.70;1.60;;;;;;;21.75;40.19;99881.38;4530047;28;20196;-60
2023/04/22 00:54:05;;;;;;;1.50;1.40;;;;;;;21.80;39.67;99886.75;4534327;28;20033;-61
2023/04/22 00:56:16;;;;;;;1.40;1.30;;;;;;;21.76;39.75;99877.28;4544487;28;21553;-60
2023/04/22 00:58:28;;;;;;;1.42;1.33;;;;;;;21.79;39.26;99879.38;4525886;28;20045;-60
2023/04/22 01:00:39;;;;;;;1.50;1.40;;;;;;;21.79;39.58;99876.50;4534958;28;20048;-60
2023/04/22 01:02:49;;;;;;;1.50;1.40;;;;;;;21.78;39.07;99880.59;4533621;28;20040;-60
2023/04/22 01:05:00;;;;;;;1.75;1.65;;;;;;;21.79;39.23;99870.75;4523687;28;20021;-60
2023/04/22 01:07:11;;;;;;;1.55;1.40;;;;;;;21.78;39.22;99879.75;4544511;28;20021;-61
2023/04/22 01:09:21;;;;;;;1.95;1.70;;;;;;;21.78;39.70;99874.00;4510972;28;20419;-60
2023/04/22 01:11:33;;;;;;;1.60;1.50;;;;;;;21.78;39.67;99874.84;4524957;28;20064;-60
2023/04/22 01:13:44;;;;;;;1.60;1.50;;;;;;;21.78;39.38;99871.16;4525419;28;21137;-60
2023/04/22 01:15:55;;;;;;;1.60;1.50;;;;;;;21.77;39.62;99878.13;4542868;28;20115;-60
2023/04/22 01:18:06;;;;;;;2.00;1.77;;;;;;;21.77;39.30;99866.63;4542071;28;20722;-60
2023/04/22 01:20:16;;;;;;;1.75;1.65;;;;;;;21.78;39.40;99868.28;4526180;28;20518;-60
2023/04/22 01:22:34;;;;;;;1.80;1.70;;;;;;;21.76;38.97;99871.53;4534246;28;20544;-59
2023/04/22 01:24:45;;;;;;;1.80;1.70;;;;;;;21.77;39.28;99869.50;4541737;28;20625;-59
2023/04/22 01:26:55;;;;;;;1.60;1.45;;;;;;;21.76;38.86;99867.81;4543972;28;20519;-59
2023/04/22 01:29:06;;;;;;;1.98;1.83;;;;;;;21.75;38.68;99875.63;4545226;28;20033;-58
2023/04/22 01:31:17;;;;;;;2.22;1.80;;;;;;;21.75;38.86;99875.63;4543334;28;20040;-58
2023/04/22 01:33:28;;;;;;;1.77;1.67;;;;;;;21.75;38.62;99871.91;4525444;28;20361;-59
2023/04/22 01:35:38;;;;;;;1.90;1.70;;;;;;;21.75;38.42;99869.91;4509614;28;20149;-58
2023/04/22 01:37:49;;;;;;;1.70;1.60;;;;;;;21.75;39.07;99869.03;4541887;28;20036;-59
2023/04/22 01:40:01;;;;;;;1.90;1.77;;;;;;;21.75;38.63;99869.03;4533030;28;20038;-59
2023/04/22 01:42:12;;;;;;;1.80;1.48;;;;;;;21.68;38.80;99858.28;4542611;28;20054;-59
2023/04/22 01:44:23;;;;;;;2.40;1.70;;;;;;;21.74;38.18;99867.38;4524940;28;20489;-59
2023/04/22 01:46:33;;;;;;;1.60;1.50;;;;;;;21.74;38.46;99871.06;4524488;28;20859;-59
2023/04/22 01:48:49;;;;;;;1.60;1.50;;;;;;;21.68;38.63;99864.03;4533127;28;20037;-59
2023/04/22 01:50:59;;;;;;;1.60;1.50;;;;;;;21.74;38.63;99870.25;4524390;28;20041;-59
2023/04/22 01:53:10;;;;;;;1.70;1.60;;;;;;;21.73;38.44;99872.28;4545103;28;20037;-59
2023/04/22 01:55:21;;;;;;;2.00;1.80;;;;;;;21.73;38.37;99869.41;4540980;28;20510;-59
2023/04/22 01:57:31;;;;;;;2.42;1.88;;;;;;;21.73;38.15;99875.16;4508509;28;20164;-59
2023/04/22 01:59:42;;;;;;;1.70;1.60;;;;;;;21.72;38.27;99870.63;4533321;28;20029;-59
2023/04/22 02:01:52;;;;;;;1.70;1.60;;;;;;;21.73;38.31;99882.94;4525413;28;20123;-59
2023/04/22 02:04:02;;;;;;;1.60;1.50;;;;;;;21.70;38.00;99878.00;4542291;28;20446;-59
2023/04/22 02:06:13;;;;;;;1.63;1.52;;;;;;;21.71;37.98;99883.34;4545736;28;20036;-59
2023/04/22 02:08:23;;;;;;;1.52;1.42;;;;;;;21.72;37.91;99879.25;4524493;28;20057;-59
2023/04/22 02:10:34;;;;;;;1.60;1.50;;;;;;;21.72;37.56;99882.09;4544859;28;20130;-58
2023/04/22 02:12:45;;;;;;;1.40;1.30;;;;;;;21.70;37.75;99884.56;4531485;28;20076;-59
2023/04/22 02:14:58;;;;;;;1.58;1.48;;;;;;;21.71;37.61;99886.22;4539535;28;20045;-59
2023/04/22 02:17:09;;;;;;;1.92;1.63;;;;;;;21.65;37.80;99872.59;4542969;28;20039;-59
2023/04/22 02:19:20;;;;;;;1.65;1.55;;;;;;;21.71;37.47;99891.13;4525820;28;20037;-58
2023/04/22 02:21:33;;;;;;;1.90;1.77;;;;;;;21.71;37.82;99894.00;4534080;28;20041;-59
2023/04/22 02:23:43;;;;;;;1.80;1.70;;;;;;;21.70;37.90;99896.06;4543937;28;20044;-59
2023/04/22 02:25:54;;;;;;;1.60;1.50;;;;;;;21.69;37.75;99894.38;4542871;28;20065;-59
2023/04/22 02:28:05;;;;;;;1.65;1.55;;;;;;;21.70;37.96;99890.31;4523018;28;20037;-59
2023/04/22 02:30:15;;;;;;;1.70;1.60;;;;;;;21.70;37.86;99884.56;4533367;28;20044;-60
2023/04/22 02:32:26;;;;;;;1.60;1.50;;;;;;;21.68;38.01;99884.13;4531023;28;20068;-60
2023/04/22 02:34:36;;;;;;;1.55;1.45;;;;;;;21.69;38.40;99885.78;4525483;28;20374;-60
2023/04/22 02:36:47;;;;;;;1.67;1.50;;;;;;;21.68;38.08;99892.75;4526820;28;20065;-60
2023/04/22 02:38:57;;;;;;;1.48;1.38;;;;;;;21.69;38.09;99882.91;4542200;28;20041;-57
2023/04/22 02:41:08;;;;;;;1.88;1.65;;;;;;;21.67;38.46;99879.63;4534192;28;20060;-60
2023/04/22 02:43:20;;;;;;;1.67;1.58;;;;;;;21.68;38.23;99884.13;4525337;28;20033;-60
2023/04/22 02:45:30;;;;;;;1.70;1.60;;;;;;;21.68;38.32;99881.25;4543649;28;20029;-60
2023/04/22 02:47:41;;;;;;;1.83;1.60;;;;;;;21.68;38.16;99889.88;4541134;28;20041;-60
2023/04/22 02:49:51;;;;;;;1.73;1.63;;;;;;;21.64;38.42;99868.91;4542876;28;20098;-61
2023/04/22 02:52:02;;;;;;;1.70;1.60;;;;;;;21.67;38.79;99879.63;4534102;28;20409;-59
2023/04/22 02:54:12;;;;;;;1.70;1.60;;;;;;;21.67;37.96;99891.09;4542461;28;20055;-60
2023/04/22 02:56:22;;;;;;;1.55;1.45;;;;;;;21.64;38.03;99877.53;4543349;28;20029;-60
2023/04/22 02:58:33;;;;;;;1.70;1.60;;;;;;;21.66;38.12;99883.69;4542798;28;20033;-60
2023/04/22 03:00:44;;;;;;;1.70;1.60;;;;;;;21.67;38.09;99873.88;4524000;28;20041;-61
2023/04/22 03:02:54;;;;;;;1.60;1.50;;;;;;;21.67;37.94;99873.03;4536108;28;20062;-60
2023/04/22 03:05:09;;;;;;;1.75;1.65;;;;;;;21.66;37.79;99877.94;4533754;28;20863;-60
2023/04/22 03:07:20;;;;;;;1.85;1.75;;;;;;;21.64;37.79;99868.91;4542579;28;20045;-60
2023/04/22 03:09:30;;;;;;;1.80;1.70;;;;;;;21.65;37.83;99870.56;4543942;28;20036;-60
2023/04/22 03:11:41;;;;;;;1.90;1.52;;;;;;;21.63;37.89;99867.25;4523292;28;20263;-60
2023/04/22 03:13:51;;;;;;;1.80;1.70;;;;;;;21.64;37.83;99857.41;4518212;28;20453;-60
2023/04/22 03:16:02;;;;;;;1.70;1.60;;;;;;;21.61;37.63;99849.56;4521190;28;20034;-60
2023/04/22 03:18:12;;;;;;;1.63;1.52;;;;;;;21.64;37.58;99868.91;4533599;28;20025;-60
2023/04/22 03:20:23;;;;;;;1.70;1.60;;;;;;;21.64;37.84;99868.91;4524561;28;20436;-60
2023/04/22 03:22:33;;;;;;;1.80;1.50;;;;;;;21.65;37.48;99873.44;4542611;28;20029;-60
2023/04/22 03:24:45;;;;;;;1.50;1.40;;;;;;;21.64;37.97;99874.66;4525607;28;20143;-60
2023/04/22 03:26:56;;;;;;;1.95;1.60;;;;;;;21.64;37.97;99874.66;4524534;28;20517;-60
2023/04/22 03:29:06;;;;;;;1.58;1.48;;;;;;;21.63;37.82;99875.84;4542573;28;20037;-60
2023/04/22 03:31:17;;;;;;;1.60;1.40;;;;;;;21.63;37.96;99867.25;4525196;28;20124;-60
2023/04/22 03:33:28;;;;;;;1.70;1.60;;;;;;;21.63;37.83;99867.25;4526572;28;20595;-60
2023/04/22 03:35:48;;;;;;;1.58;1.48;;;;;;;21.62;38.09;99865.59;4525842;28;20033;-59
2023/04/22 03:37:59;;;;;;;1.80;1.70;;;;;;;21.63;37.81;99866.41;4524198;28;20036;-59
2023/04/22 03:40:14;;;;;;;1.65;1.55;;;;;;;21.61;37.61;99863.91;4524486;28;20068;-60
2023/04/22 03:42:25;;;;;;;1.50;1.40;;;;;;;21.62;37.61;99868.47;4534309;28;20832;-60
2023/04/22 03:44:35;;;;;;;1.50;1.40;;;;;;;21.62;37.69;99870.50;4524199;28;20037;-60
2023/04/22 03:46:46;;;;;;;1.52;1.40;;;;;;;21.61;38.00;99861.06;4525095;28;20037;-60
2023/04/22 03:49:06;;;;;;;1.65;1.55;;;;;;;21.59;37.91;99863.50;4528391;28;20028;-60
2023/04/22 03:51:18;;;;;;;1.50;1.40;;;;;;;21.60;37.74;99862.28;4507559;28;20108;-60
2023/04/22 03:53:28;;;;;;;1.50;1.40;;;;;;;21.61;37.86;99869.66;4522041;28;20095;-61
2023/04/22 03:55:39;;;;;;;1.70;1.60;;;;;;;21.61;37.52;99861.06;4532382;28;20086;-60
2023/04/22 03:57:50;;;;;;;1.73;1.63;;;;;;;21.60;37.90;99862.28;4522827;28;20037;-60
2023/04/22 04:00:00;;;;;;;1.70;1.60;;;;;;;21.59;37.61;99857.78;4533034;28;20413;-60
2023/04/22 04:02:11;;;;;;;1.77;1.67;;;;;;;21.59;37.78;99849.16;4527388;28;20033;-60
2023/04/22 04:04:22;;;;;;;1.67;1.58;;;;;;;21.60;37.81;99855.69;4523099;28;20029;-60
2023/04/22 04:06:40;;;;;;;1.70;1.60;;;;;;;21.59;37.71;99860.63;4532646;28;20029;-60
2023/04/22 04:08:51;;;;;;;1.67;1.50;;;;;;;21.42;37.58;99814.47;4540389;28;20752;-60
2023/04/22 04:11:01;;;;;;;1.67;1.40;;;;;;;21.60;37.63;99838.47;4521863;28;20020;-60
2023/04/22 04:13:12;;;;;;;1.48;1.38;;;;;;;21.57;37.40;99834.34;4504970;28;20726;-60
2023/04/22 04:15:35;;;;;;;1.58;1.48;;;;;;;21.60;37.56;99838.47;4532537;28;20769;-60
2023/04/22 04:17:47;;;;;;;1.67;1.58;;;;;;;21.59;37.22;99842.56;4539505;28;20032;-60
2023/04/22 04:19:58;;;;;;;1.70;1.60;;;;;;;21.58;37.14;99833.13;4524221;28;20300;-60
2023/04/22 04:22:09;;;;;;;1.40;1.30;;;;;;;21.57;37.14;99836.38;4534453;28;20032;-60
2023/04/22 04:24:25;;;;;;;1.80;1.70;;;;;;;21.58;37.22;99836.00;4526876;28;20553;-61
2023/04/22 04:26:42;;;;;;;1.63;1.52;;;;;;;21.57;37.91;99828.59;4535061;28;20053;-60
2023/04/22 04:28:57;;;;;;;1.95;1.70;;;;;;;21.50;37.45;99825.63;4534192;28;20160;-60
2023/04/22 04:31:08;;;;;;;2.00;1.80;;;;;;;21.57;37.30;99834.34;4533222;28;20645;-60
2023/04/22 04:33:19;;;;;;;2.13;1.70;;;;;;;21.56;37.44;99826.97;4535931;28;20359;-60
2023/04/22 04:35:33;;;;;;;1.80;1.60;;;;;;;21.56;37.40;99826.97;4533093;28;20040;-60
2023/04/22 04:37:43;;;;;;;1.70;1.60;;;;;;;21.56;37.23;99826.97;4523853;28;20029;-60
2023/04/22 04:39:54;;;;;;;1.65;1.55;;;;;;;21.56;37.57;99824.09;4534711;28;20041;-60
2023/04/22 04:42:07;;;;;;;1.88;1.70;;;;;;;21.54;37.35;99823.66;4534368;28;20599;-59
2023/04/22 04:44:26;;;;;;;2.20;1.50;;;;;;;21.55;37.26;99831.03;4518388;28;20032;-60
2023/04/22 04:46:38;;;;;;;1.80;1.70;;;;;;;21.55;37.09;99836.78;4522959;28;20040;-60
2023/04/22 04:48:49;;;;;;;1.80;1.70;;;;;;;21.55;37.56;99831.03;4543558;28;20033;-60
2023/04/22 04:51:00;;;;;;;1.70;1.60;;;;;;;21.53;37.75;99829.78;4534179;28;20732;-61
2023/04/22 04:53:13;;;;;;;1.60;1.50;;;;;;;21.55;37.60;99841.72;4525434;28;20074;-60
2023/04/22 04:55:26;;;;;;;1.90;1.70;;;;;;;21.52;37.51;99837.56;4534938;28;20025;-60
2023/04/22 04:57:37;;;;;;;1.70;1.60;;;;;;;21.54;37.49;99849.50;4539944;28;20140;-60
2023/04/22 04:59:48;;;;;;;1.52;1.40;;;;;;;21.53;37.82;99836.34;4516841;28;20033;-60
2023/04/22 05:01:58;;;;;;;1.73;1.60;;;;;;;21.53;38.49;99836.34;4529812;28;20124;-59
2023/04/22 05:04:09;;;;;;;1.73;1.63;;;;;;;21.51;38.30;99840.84;4523915;28;20144;-60
2023/04/22 05:06:22;;;;;;;2.08;1.75;;;;;;;21.45;38.43;99823.16;4523351;28;20092;-60
2023/04/22 05:08:38;;;;;;;1.60;1.50;;;;;;;21.53;38.20;99832.66;4526948;28;20029;-60
2023/04/22 05:10:52;;;;;;;1.77;1.60;;;;;;;21.52;38.46;99831.81;4524486;28;20823;-60
2023/04/22 05:13:03;;;;;;;2.03;1.70;;;;;;;21.52;38.29;99843.31;4525382;28;20029;-60
2023/04/22 05:15:14;;;;;;;1.77;1.67;;;;;;;21.52;38.03;99846.19;4525465;28;20112;-60
2023/04/22 05:17:25;;;;;;;1.60;1.50;;;;;;;21.48;38.27;99833.84;4526834;28;20777;-60
2023/04/22 05:19:35;;;;;;;1.70;1.60;;;;;;;21.52;38.15;99833.84;4541458;28;20035;-60
2023/04/22 05:21:46;;;;;;;1.65;1.55;;;;;;;21.51;38.04;99843.69;4517371;28;20091;-60
2023/04/22 05:23:57;;;;;;;1.70;1.60;;;;;;;21.51;38.39;99835.94;4524902;28;20069;-60
2023/04/22 05:26:09;;;;;;;1.60;1.50;;;;;;;21.50;38.42;99827.72;4516598;28;20029;-61
2023/04/22 05:28:23;;;;;;;1.70;1.60;;;;;;;21.50;38.41;99828.50;4524516;28;20041;-61
2023/04/22 05:30:38;;;;;;;1.50;1.40;;;;;;;21.50;38.68;99834.25;4523170;28;20033;-60
2023/04/22 05:32:48;;;;;;;1.85;1.75;;;;;;;21.50;38.55;99825.63;4535150;28;20482;-60
2023/04/22 05:34:59;;;;;;;1.95;1.45;;;;;;;21.50;38.90;99830.56;4527243;28;20025;-60
2023/04/22 05:37:09;;;;;;;1.60;1.50;;;;;;;21.46;38.95;99818.22;4525065;28;20437;-59
2023/04/22 05:39:22;;;;;;;1.83;1.42;;;;;;;21.49;39.06;99824.00;4534250;28;20568;-59
2023/04/22 05:41:33;;;;;;;1.50;1.40;;;;;;;21.49;38.71;99821.13;4527961;28;20500;-58
2023/04/22 05:43:44;;;;;;;1.50;1.40;;;;;;;21.48;38.99;99813.75;4534531;28;20083;-59
2023/04/22 05:45:59;;;;;;;1.60;1.35;;;;;;;21.49;39.26;99821.13;4531727;28;20041;-59
2023/04/22 05:48:10;;;;;;;1.55;1.40;;;;;;;21.48;38.82;99812.91;4531728;28;20447;-59
2023/04/22 05:50:26;;;;;;;1.50;1.40;;;;;;;21.44;38.89;99807.13;4519103;28;20033;-59
2023/04/22 05:52:42;;;;;;;1.50;1.40;;;;;;;21.48;38.87;99810.88;4534685;28;20041;-59
2023/04/22 05:54:57;;;;;;;1.52;1.42;;;;;;;21.48;39.34;99812.91;4524367;28;20084;-59
2023/04/22 05:57:07;;;;;;;2.17;1.70;;;;;;;21.47;39.36;99814.94;4541245;28;20037;-59
2023/04/22 05:59:18;;;;;;;1.55;1.45;;;;;;;21.46;39.20;99810.44;4525884;28;20029;-59
2023/04/22 06:01:28;;;;;;;1.73;1.40;;;;;;;21.48;39.27;99810.03;4541453;28;20037;-59
2023/04/22 06:03:43;;;;;;;1.70;1.60;;;;;;;21.47;39.55;99817.00;4534362;28;20045;-59
2023/04/22 06:05:53;;;;;;;1.73;1.60;;;;;;;21.43;39.75;99811.22;4543225;28;20029;-60
2023/04/22 06:08:04;;;;;;;1.63;1.50;;;;;;;21.46;39.63;99816.16;4533789;28;20068;-60
2023/04/22 06:10:14;;;;;;;1.48;1.27;;;;;;;21.47;39.95;99817.00;4542368;28;20028;-59
2023/04/22 06:12:25;;;;;;;1.60;1.50;;;;;;;21.47;40.04;99817.00;4543314;28;20071;-59
2023/04/22 06:14:36;;;;;;;1.38;1.27;;;;;;;21.45;39.92;99813.69;4529746;28;20051;-59
2023/04/22 06:16:46;;;;;;;1.45;1.35;;;;;;;21.47;39.73;99825.63;4533960;28;20072;-60
2023/04/22 06:18:57;;;;;;;1.58;1.48;;;;;;;21.43;39.98;99811.22;4534739;28;20029;-61
2023/04/22 06:21:08;;;;;;;1.42;1.33;;;;;;;21.45;40.28;99811.66;4525283;28;20045;-59
2023/04/22 06:23:20;;;;;;;1.58;1.48;;;;;;;21.45;40.07;99814.53;4534038;28;20037;-61
2023/04/22 06:25:31;;;;;;;1.25;1.15;;;;;;;21.45;40.32;99814.53;4508531;28;20053;-60
2023/04/22 06:27:42;;;;;;;1.30;1.20;;;;;;;21.45;40.05;99816.56;4524773;28;20040;-60
2023/04/22 06:29:52;;;;;;;1.38;1.27;;;;;;;21.46;40.22;99809.59;4533395;28;20025;-61
2023/04/22 06:32:03;;;;;;;1.40;1.30;;;;;;;21.44;40.50;99812.84;4524229;28;20036;-60
2023/04/22 06:34:14;;;;;;;1.58;1.48;;;;;;;21.46;40.58;99809.59;4533596;28;20063;-59
2023/04/22 06:36:26;;;;;;;1.40;1.20;;;;;;;21.39;40.89;99798.03;4524768;28;20068;-60
2023/04/22 06:38:41;;;;;;;1.60;1.40;;;;;;;21.41;40.88;99807.91;4522958;28;20032;-60
2023/04/22 06:41:26;;;;;;;1.33;1.23;;;;;;;21.45;41.25;99805.09;4476676;28;20151;-61
2023/04/22 06:43:42;;;;;;;1.85;1.40;;;;;;;21.44;41.30;99803.41;4505898;28;20285;-60
2023/04/22 06:45:52;;;;;;;1.27;1.17;;;;;;;21.44;41.49;99807.13;4544564;28;20079;-60
2023/04/22 06:48:16;;;;;;;1.50;1.40;;;;;;;21.44;41.25;99810.00;4523212;28;20144;-60
2023/04/22 06:50:49;;;;;;;1.48;1.38;;;;;;;21.44;41.61;99810.00;4535573;28;21594;-60
2023/04/22 06:53:00;;;;;;;1.35;1.25;;;;;;;21.44;41.81;99807.13;4529684;28;20036;-60
2023/04/22 06:55:11;;;;;;;1.50;1.40;;;;;;;21.44;41.95;99800.53;4522996;28;20493;-60
2023/04/22 06:57:21;;;;;;;1.58;1.48;;;;;;;21.44;42.31;99803.41;4524032;28;20033;-60
2023/04/22 06:59:32;;;;;;;1.30;1.20;;;;;;;21.44;42.53;99803.41;4524548;28;20561;-60
2023/04/22 07:01:43;;;;;;;1.58;1.38;;;;;;;21.38;42.63;99797.22;4541877;28;20496;-60
2023/04/22 07:03:53;;;;;;;1.40;1.30;;;;;;;21.43;42.63;99810.38;4523271;28;20481;-59
2023/04/22 07:06:04;;;;;;;1.35;1.25;;;;;;;21.43;43.07;99805.47;4524503;28;20029;-60
2023/04/22 07:08:16;;;;;;;1.67;1.50;;;;;;;21.43;42.54;99802.59;4541720;28;20043;-60
2023/04/22 07:10:26;;;;;;;1.30;1.20;;;;;;;21.44;42.74;99801.38;4532476;28;20032;-60
2023/04/22 07:13:00;;;;;;;1.30;1.20;;;;;;;21.41;43.07;99795.59;4489473;28;20091;-60
2023/04/22 07:15:10;;;;;;;1.42;1.30;;;;;;;21.28;43.30;99774.13;4542961;28;20171;-60
2023/04/22 07:17:21;;;;;;;1.30;1.20;;;;;;;21.37;43.30;99789.00;4543944;28;20465;-60
2023/04/22 07:19:31;;;;;;;1.38;1.27;;;;;;;21.44;43.02;99801.38;4546301;28;20032;-60
2023/04/22 07:21:45;;;;;;;1.55;1.20;;;;;;;21.42;43.34;99794.38;4533677;28;22451;-59
2023/04/22 07:23:55;;;;;;;1.20;1.10;;;;;;;21.44;43.17;99795.63;4533681;28;20039;-60
2023/04/22 07:26:05;;;;;;;1.25;1.15;;;;;;;21.45;43.58;99797.31;4541660;28;20804;-60
2023/04/22 07:28:16;;;;;;;1.27;1.10;;;;;;;21.42;43.72;99791.50;4544301;28;20043;-60
2023/04/22 07:30:26;;;;;;;1.20;1.10;;;;;;;21.45;43.88;99793.59;4543285;28;20021;-60
2023/04/22 07:32:37;;;;;;;1.20;1.10;;;;;;;21.43;44.08;99784.53;4541826;28;20033;-60
2023/04/22 07:34:47;;;;;;;1.90;1.00;;;;;;;21.45;43.17;99791.56;4543695;28;20036;-60
2023/04/22 07:36:58;;;;;;;1.02;0.95;;;;;;;21.45;43.57;99788.69;4543194;28;20029;-60
2023/04/22 07:39:08;;;;;;;0.90;0.90;;;;;;;21.44;43.26;99784.16;4541357;28;20029;-60
2023/04/22 07:41:19;;;;;;;1.23;1.10;;;;;;;21.41;43.28;99773.44;4541600;28;20025;-60
2023/04/22 07:43:29;;;;;;;1.13;1.02;;;;;;;21.44;43.48;99777.56;4542701;28;20065;-60
2023/04/22 07:45:40;;;;;;;1.20;1.10;;;;;;;21.45;44.11;99779.25;4541782;28;20041;-60
2023/04/22 07:47:50;;;;;;;1.15;1.02;;;;;;;21.45;43.96;99785.81;4525257;28;20034;-60
2023/04/22 07:50:01;;;;;;;1.20;1.10;;;;;;;21.45;43.94;99777.22;4524908;28;20041;-60
2023/04/22 07:52:11;;;;;;;1.00;0.90;;;;;;;21.47;43.86;99776.81;4541378;28;20389;-60
2023/04/22 07:54:21;;;;;;;1.52;1.30;;;;;;;21.46;44.07;99775.13;4544426;28;20044;-60
2023/04/22 07:56:33;;;;;;;1.17;1.08;;;;;;;21.45;43.53;99771.47;4546191;28;20063;-60
2023/04/22 07:58:43;;;;;;;1.17;1.08;;;;;;;21.45;43.91;99767.75;4544546;28;20032;-59
2023/04/22 08:00:54;;;;;;;1.30;1.20;;;;;;;21.45;44.09;99768.59;4547566;28;20064;-60
2023/04/22 08:03:04;;;;;;;0.70;0.63;;;;;;;21.66;44.54;99774.53;4547251;28;20455;-60
2023/04/22 08:05:14;;;;;;;1.65;0.80;;;;;;;21.76;44.11;99773.03;4545767;28;20044;-60
2023/04/22 08:07:25;;;;;;;0.88;0.82;;;;;;;21.82;44.04;99775.16;4545675;28;20083;-59
2023/04/22 08:09:35;;;;;;;0.98;0.82;;;;;;;21.87;43.76;99768.22;4545663;28;20033;-61
2023/04/22 08:11:46;;;;;;;0.70;0.70;;;;;;;21.91;44.00;99769.09;4545948;28;20033;-60
2023/04/22 08:13:56;;;;;;;1.00;0.90;;;;;;;21.95;44.10;99770.78;4547313;28;20045;-60
2023/04/22 08:16:07;;;;;;;1.08;0.98;;;;;;;21.93;44.42;99776.09;4544833;28;20200;-60
2023/04/22 08:18:17;;;;;;;1.30;1.10;;;;;;;21.99;44.67;99776.56;4546185;28;20125;-61
2023/04/22 08:20:28;;;;;;;1.38;1.10;;;;;;;22.02;44.45;99778.63;4535945;28;20111;-58
2023/04/22 08:22:38;;;;;;;1.55;1.13;;;;;;;22.06;44.61;99774.56;4534312;28;20031;-62
2023/04/22 08:24:48;;;;;;;1.85;1.50;;;;;;;22.07;44.86;99781.16;4544415;28;20477;-59
2023/04/22 08:26:59;;;;;;;2.78;1.27;;;;;;;22.08;44.59;99777.03;4545518;28;20033;-60
2023/04/22 08:29:10;;;;;;;1.50;1.30;;;;;;;22.13;44.72;99771.78;4545965;28;20366;-59
2023/04/22 08:31:20;;;;;;;2.25;1.42;;;;;;;22.18;44.78;99776.31;4545431;28;20044;-60
2023/04/22 08:33:31;;;;;;;1.70;1.42;;;;;;;22.19;44.73;99775.94;4535983;28;20070;-62
2023/04/22 08:35:41;;;;;;;1.42;1.33;;;;;;;22.19;44.47;99780.84;4544879;28;20020;-60
2023/04/22 08:37:52;;;;;;;1.65;1.45;;;;;;;22.18;44.71;99771.38;4545344;28;20569;-62
2023/04/22 08:40:03;;;;;;;1.60;1.50;;;;;;;22.17;44.27;99777.53;4534999;28;20043;-64
2023/04/22 08:42:14;;;;;;;3.40;2.00;;;;;;;22.13;44.82;99771.78;4546073;28;20084;-60
2023/04/22 08:44:25;;;;;;;1.88;1.58;;;;;;;22.16;44.74;99776.72;4545473;28;20057;-60
2023/04/22 08:46:37;;;;;;;2.22;1.80;;;;;;;22.16;44.72;99773.84;4535704;28;20041;-61
2023/04/22 08:48:49;;;;;;;3.03;1.83;;;;;;;22.17;44.76;99775.50;4525338;28;20077;-60
2023/04/22 08:50:59;;;;;;;2.42;1.83;;;;;;;22.15;44.63;99766.44;4524376;28;20040;-60
2023/04/22 08:53:10;;;;;;;2.72;2.10;;;;;;;22.19;44.56;99766.47;4545034;28;23240;-60
2023/04/22 08:55:21;;;;;;;3.22;2.00;;;;;;;22.19;44.80;99760.72;4535178;28;20037;-61
2023/04/22 08:57:32;;;;;;;2.53;2.20;;;;;;;22.20;44.75;99754.56;4543680;28;20051;-61
2023/04/22 08:59:42;;;;;;;3.55;2.97;;;;;;;22.20;46.07;99753.72;4544847;28;20477;-61
2023/04/22 09:01:54;;;;;;;3.80;2.65;;;;;;;22.19;46.89;99752.94;4544403;28;20063;-60
2023/04/22 09:04:05;;;;;;;4.15;2.65;;;;;;;22.23;46.63;99750.09;4544335;28;20044;-60
2023/04/22 09:06:19;;;;;;;2.97;2.38;;;;;;;22.23;45.28;99746.38;4544192;28;20689;-61
2023/04/22 09:08:33;;;;;;;2.75;2.40;;;;;;;22.22;45.65;99745.53;4544293;28;20036;-61
2023/04/22 09:10:44;;;;;;;2.80;2.50;;;;;;;22.26;45.58;99746.41;4525464;28;20100;-61
2023/04/22 09:12:55;;;;;;;5.88;2.92;;;;;;;22.25;45.47;99743.94;4545114;28;20127;-61
2023/04/22 09:15:07;;;;;;;2.92;2.42;;;;;;;22.18;45.39;99728.25;4535111;28;20036;-61
2023/04/22 09:17:30;;;;;;;4.65;2.42;;;;;;;22.28;45.46;99740.25;4546171;28;20036;-61
2023/04/22 09:19:40;;;;;;;3.22;2.70;;;;;;;22.25;45.19;99735.31;4544257;28;20128;-61
2023/04/22 09:21:51;;;;;;;4.05;2.88;;;;;;;22.16;45.26;99712.66;4543401;28;20917;-61
2023/04/22 09:24:02;;;;;;;5.57;3.60;;;;;;;22.28;45.18;99731.63;4544889;28;20025;-61
2023/04/22 09:26:14;;;;;;;3.60;3.15;;;;;;;22.28;45.64;99731.63;4542059;28;20037;-61
2023/04/22 09:28:24;;;;;;;3.83;2.97;;;;;;;22.32;45.32;99729.59;4542908;28;20098;-61
2023/04/22 09:30:36;;;;;;;4.65;2.83;;;;;;;22.31;46.66;99730.84;4543672;28;20538;-61
2023/04/22 09:32:54;;;;;;;7.70;5.13;;;;;;;22.34;50.22;99724.28;4545082;28;21505;-61
2023/04/22 09:35:05;;;;;;;10.55;5.45;;;;;;;22.21;51.14;99713.09;4544733;28;20521;-61
2023/04/22 09:37:23;;;;;;;10.93;5.32;;;;;;;22.34;50.66;99725.13;4544288;28;20025;-61
2023/04/22 09:39:33;;;;;;;6.40;4.90;;;;;;;22.08;49.68;99677.28;4527670;28;20045;-60
2023/04/22 09:41:44;;;;;;;7.72;4.28;;;;;;;22.34;48.30;99718.53;4534801;28;20056;-61
2023/04/22 09:43:59;;;;;;;7.43;3.92;;;;;;;22.35;47.57;99725.91;4524017;28;20441;-61
2023/04/22 09:46:09;;;;;;;6.30;3.95;;;;;;;22.36;47.73;99716.09;4543074;28;20834;-61
2023/04/22 09:48:20;;;;;;;6.95;3.83;;;;;;;22.36;47.21;99722.66;4543853;28;20041;-61
2023/04/22 09:50:31;;;;;;;6.47;3.80;;;;;;;22.38;47.65;99714.44;4543600;28;20079;-61
2023/04/22 09:52:41;;;;;;;6.05;3.95;;;;;;;22.34;47.28;99709.91;4545856;28;20029;-60
2023/04/22 09:54:53;;;;;;;4.32;3.60;;;;;;;22.28;47.24;99691.38;4543442;28;20056;-61
2023/04/22 09:57:03;;;;;;;3.90;3.50;;;;;;;22.41;47.18;99710.78;4542319;28;20231;-61
2023/04/22 09:59:20;;;;;;;5.30;4.05;;;;;;;22.41;47.30;99712.81;4542580;28;20036;-61
2023/04/22 10:01:39;;;;;;;16.42;7.15;;;;;;;22.41;48.89;99712.81;4545263;28;20092;-60
2023/04/22 10:03:50;;;;;;;20.67;7.88;;;;;;;22.41;48.57;99712.81;4543614;28;20069;-60
2023/04/22 10:06:00;;;;;;;10.00;4.85;;;;;;;22.37;47.76;99703.34;4542487;28;20088;-60
2023/04/22 10:08:13;;;;;;;10.77;5.32;;;;;;;22.41;47.44;99695.56;4542573;28;20033;-61
2023/04/22 10:10:23;;;;;;;8.32;5.32;;;;;;;22.36;47.60;99693.09;4544174;28;20064;-60
2023/04/22 10:12:35;;;;;;;8.82;5.40;;;;;;;22.45;47.20;99705.06;4529821;28;20412;-60
2023/04/22 10:14:45;;;;;;;11.00;5.60;;;;;;;22.46;47.13;99698.06;4524785;28;20161;-61
2023/04/22 10:16:59;;;;;;;10.40;5.28;;;;;;;22.38;47.36;99690.63;4541063;28;20203;-60
2023/04/22 10:19:17;;;;;;;8.73;5.03;;;;;;;22.49;46.93;99695.22;4540336;28;20037;-60
2023/04/22 10:21:29;;;;;;;10.38;5.72;;;;;;;22.49;47.05;99703.00;4543225;28;20033;-60